Dades meteomassalio
Diari Summary for Diciembre 5, 2017 Units:  Metric    English   Both
« Previous Day
Next Day »
Diari Semanal Mensual Anual Personalitzat
  Maxima: Minima: Mijana:
Temperatura: -17.8 °C -20.9 °C -17.5 °C
Rosada: -17.8 °C -21.6 °C -19.6 °C
Humitat: Humidity % 56 % 78 %
Velocitat del vent: 0 km/h 0 km/h 1.1 km/h
Racha vent: 0 km/h - -
Vent:- - SSW
Pressio: 0 hPa 35163.6 hPa -
Pluja: 0 mm    
Historical Graphs
 
 
Tabular Data for Diciembre 5, 2017
Time Temperature Dew Point Pressure Wind Wind Speed Wind Gust Humidity Rainfall Rate (Hourly) solar Conditions
-17.8 °C -17.8 °C 0 hPa Calm     Humidity % 0 mm SolarRadiationWatts/m^2 W/m2 Conditions
00:03 -19.3 °C -20.4 °C 35197.5 hPa Calm     87 % 0 mm 0.0 W/m2 CLR
00:08 -19.3 °C -20.4 °C 35207.6 hPa Calm     87 % 0 mm 0.0 W/m2 CLR
00:13 -19.3 °C -20.4 °C 35207.6 hPa Calm     87 % 0 mm 0.0 W/m2 CLR
00:18 -19.3 °C -20.4 °C 35207.6 hPa Calm     86 % 0 mm 0.0 W/m2 CLR
00:23 -19.3 °C -20.4 °C 35207.6 hPa Calm     86 % 0 mm 0.0 W/m2 CLR
00:28 -19.3 °C -20.4 °C 35207.6 hPa Calm     86 % 0 mm 0.0 W/m2 CLR
00:33 -19.3 °C -20.4 °C 35207.6 hPa Calm     86 % 0 mm 0.0 W/m2 CLR
00:38 -19.3 °C -20.4 °C 35207.6 hPa Calm     87 % 0 mm 0.0 W/m2 CLR
00:43 -19.3 °C -20.4 °C 35197.5 hPa Calm     86 % 0 mm 0.0 W/m2 CLR
00:48 -19 °C -20.1 °C 35197.5 hPa Calm     87 % 0 mm 0.0 W/m2 CLR
00:53 -19 °C -20.1 °C 35197.5 hPa Calm     87 % 0 mm 0.0 W/m2 CLR
01:03 -19.3 °C -20.4 °C 35197.5 hPa Calm     87 % 0 mm 0.0 W/m2 CLR
01:08 -19.3 °C -20.3 °C 35197.5 hPa Calm     88 % 0 mm 0.0 W/m2 CLR
01:14 -19.3 °C -20.3 °C 35197.5 hPa Calm     88 % 0 mm 0.0 W/m2 CLR
01:19 -19.3 °C -20.3 °C 35197.5 hPa Calm     88 % 0 mm 0.0 W/m2 CLR
01:24 -19.3 °C -20.3 °C 35197.5 hPa Calm     88 % 0 mm 0.0 W/m2 CLR
01:29 -19.3 °C -20.3 °C 35197.5 hPa Calm     88 % 0 mm 0.0 W/m2 CLR
01:34 -19.3 °C -20.3 °C 35197.5 hPa Calm     88 % 0 mm 0.0 W/m2 CLR
01:39 -19.3 °C -20.4 °C 35197.5 hPa Calm     87 % 0 mm 0.0 W/m2 CLR
01:44 -19.3 °C -20.3 °C 35197.5 hPa Calm     88 % 0 mm 0.0 W/m2 CLR
01:54 -19.3 °C -20.3 °C 35187.3 hPa Calm     88 % 0 mm 0.0 W/m2 CLR
01:59 -19.3 °C -20.3 °C 35187.3 hPa Calm     88 % 0 mm 0.0 W/m2 CLR
02:04 -19.3 °C -20.2 °C 35187.3 hPa Calm     89 % 0 mm 0.0 W/m2 CLR
02:09 -19.3 °C -20.2 °C 35197.5 hPa Calm     89 % 0 mm 0.0 W/m2 CLR
02:14 -19.3 °C -20.2 °C 35197.5 hPa Calm     89 % 0 mm 0.0 W/m2 CLR
02:19 -19.3 °C -20.2 °C 35187.3 hPa Calm     89 % 0 mm 0.0 W/m2 CLR
02:24 -19.6 °C -20.6 °C 35187.3 hPa Calm     88 % 0 mm 0.0 W/m2 CLR
02:29 -19.6 °C -20.5 °C 35197.5 hPa Calm     89 % 0 mm 0.0 W/m2 CLR
02:34 -19.3 °C -20.1 °C 35197.5 hPa Calm     90 % 0 mm 0.0 W/m2 CLR
02:39 -19.3 °C -20.1 °C 35197.5 hPa Calm     90 % 0 mm 0.0 W/m2 CLR
02:44 -19.6 °C -20.5 °C 35197.5 hPa Calm     89 % 0 mm 0.0 W/m2 CLR
02:50 -19.6 °C -20.5 °C 35197.5 hPa Calm     89 % 0 mm 0.0 W/m2 CLR
02:55 -19.6 °C -20.5 °C 35197.5 hPa Calm     89 % 0 mm 0.0 W/m2 CLR
03:00 -19.6 °C -20.4 °C 35197.5 hPa Calm     90 % 0 mm 0.0 W/m2 CLR
03:05 -19.6 °C -20.5 °C 35197.5 hPa Calm     89 % 0 mm 0.0 W/m2 CLR
03:10 -19.6 °C -20.5 °C 35197.5 hPa Calm     89 % 0 mm 0.0 W/m2 CLR
03:15 -19.6 °C -20.4 °C 35197.5 hPa Calm     90 % 0 mm 0.0 W/m2 CLR
03:20 -19.6 °C -20.4 °C 35197.5 hPa Calm     90 % 0 mm 0.0 W/m2 CLR
03:25 -19.6 °C -20.4 °C 35197.5 hPa Calm     90 % 0 mm 0.0 W/m2 CLR
03:30 -19.6 °C -20.5 °C 35197.5 hPa WSW 6 km/h 6 km/h 89 % 0 mm 0.0 W/m2 CLR
03:35 -19.6 °C -20.4 °C 35197.5 hPa WSW 6 km/h 6 km/h 90 % 0 mm 0.0 W/m2 CLR
03:40 -19.6 °C -20.4 °C 35197.5 hPa Calm     90 % 0 mm 0.0 W/m2 CLR
03:45 -19.6 °C -20.4 °C 35197.5 hPa WSW 9 km/h 9 km/h 90 % 0 mm 0.0 W/m2 CLR
03:50 -19.6 °C -20.4 °C 35197.5 hPa WSW 6 km/h 6 km/h 90 % 0 mm 0.0 W/m2 CLR
04:00 -19.6 °C -20.4 °C 35187.3 hPa WSW 9 km/h 9 km/h 90 % 0 mm 0.0 W/m2 CLR
04:05 -19.6 °C -20.4 °C 35187.3 hPa WSW 6 km/h 6 km/h 90 % 0 mm 0.0 W/m2 CLR
04:10 -19.6 °C -20.4 °C 35187.3 hPa Calm     90 % 0 mm 0.0 W/m2 CLR
04:15 -19.6 °C -20.4 °C 35187.3 hPa Calm     90 % 0 mm 0.0 W/m2 CLR
04:20 -19.6 °C -20.4 °C 35187.3 hPa Calm     90 % 0 mm 0.0 W/m2 CLR
04:25 -19.6 °C -20.3 °C 35187.3 hPa Calm     91 % 0 mm 0.0 W/m2 CLR
04:30 -19.9 °C -20.8 °C 35187.3 hPa Calm     89 % 0 mm 0.0 W/m2 CLR
04:35 -19.6 °C -20.4 °C 35187.3 hPa Calm     90 % 0 mm 0.0 W/m2 CLR
04:40 -19.9 °C -20.7 °C 35173.8 hPa Calm     90 % 0 mm 0.0 W/m2 CLR
04:45 -19.9 °C -20.7 °C 35173.8 hPa Calm     90 % 0 mm 0.0 W/m2 CLR
04:50 -19.9 °C -20.7 °C 35187.3 hPa Calm     91 % 0 mm 0.0 W/m2 CLR
04:55 -19.9 °C -20.7 °C 35173.8 hPa Calm     91 % 0 mm 0.0 W/m2 CLR
05:00 -19.9 °C -20.7 °C 35173.8 hPa Calm     91 % 0 mm 0.0 W/m2 CLR
05:05 -19.9 °C -20.7 °C 35173.8 hPa Calm     91 % 0 mm 0.0 W/m2 CLR
05:10 -19.9 °C -20.7 °C 35173.8 hPa Calm     91 % 0 mm 0.0 W/m2 CLR
05:15 -20.2 °C -21 °C 35173.8 hPa Calm     90 % 0 mm 0.0 W/m2 CLR
05:20 -20.2 °C -20.9 °C 35173.8 hPa Calm     91 % 0 mm 0.0 W/m2 CLR
05:25 -20.2 °C -20.9 °C 35173.8 hPa Calm     91 % 0 mm 0.0 W/m2 CLR
05:30 -20.2 °C -21 °C 35173.8 hPa Calm     90 % 0 mm 0.0 W/m2 CLR
05:35 -20.2 °C -21 °C 35173.8 hPa Calm     90 % 0 mm 0.0 W/m2 CLR
05:40 -20.2 °C -20.9 °C 35173.8 hPa Calm     91 % 0 mm 0.0 W/m2 CLR
05:45 -20.2 °C -20.9 °C 35173.8 hPa Calm     91 % 0 mm 0.0 W/m2 CLR
05:50 -20.2 °C -20.9 °C 35173.8 hPa Calm     91 % 0 mm 0.0 W/m2 CLR
05:55 -20.6 °C -21.2 °C 35173.8 hPa Calm     91 % 0 mm 0.0 W/m2 CLR
06:00 -20.6 °C -21.2 °C 35173.8 hPa Calm     91 % 0 mm 0.0 W/m2 CLR
06:10 -20.6 °C -21.2 °C 35187.3 hPa Calm     91 % 0 mm 0.0 W/m2 CLR
06:15 -20.6 °C -21.2 °C 35187.3 hPa Calm     91 % 0 mm 0.0 W/m2 CLR
06:20 -20.6 °C -21.2 °C 35187.3 hPa Calm     91 % 0 mm 0.0 W/m2 CLR
06:25 -20.6 °C -21.2 °C 35187.3 hPa Calm     91 % 0 mm 0.0 W/m2 CLR
06:30 -20.6 °C -21.2 °C 35187.3 hPa Calm     91 % 0 mm 0.0 W/m2 CLR
06:35 -20.6 °C -21.2 °C 35187.3 hPa Calm     91 % 0 mm 0.0 W/m2 CLR
06:40 -20.6 °C -21.2 °C 35187.3 hPa Calm     91 % 0 mm 0.0 W/m2 CLR
06:45 -20.6 °C -21.2 °C 35187.3 hPa Calm     91 % 0 mm 0.0 W/m2 CLR
06:50 -20.6 °C -21.2 °C 35187.3 hPa Calm     91 % 0 mm 0.0 W/m2 CLR
06:55 -20.6 °C -21.2 °C 35187.3 hPa Calm     91 % 0 mm 0.0 W/m2 CLR
07:00 -20.2 °C -20.9 °C 35187.3 hPa Calm     91 % 0 mm 0.0 W/m2 CLR
07:05 -20.2 °C -20.9 °C 35187.3 hPa Calm     91 % 0 mm 0.0 W/m2 CLR
07:10 -20.6 °C -21.2 °C 35197.5 hPa Calm     91 % 0 mm 0.0 W/m2 CLR
07:15 -20.6 °C -21.2 °C 35197.5 hPa Calm     91 % 0 mm 0.0 W/m2 CLR
07:20 -20.6 °C -21.2 °C 35197.5 hPa Calm     91 % 0 mm 0.0 W/m2 CLR
07:25 -20.6 °C -21.2 °C 35197.5 hPa Calm     91 % 0 mm 0.0 W/m2 CLR
07:30 -20.6 °C -21.2 °C 35197.5 hPa WSW 3.1 km/h 3.1 km/h 91 % 0 mm 0.0 W/m2 CLR
07:35 -20.6 °C -21.2 °C 35197.5 hPa WSW 7.7 km/h 7.7 km/h 91 % 0 mm 0.0 W/m2 CLR
07:40 -20.6 °C -21.2 °C 35197.5 hPa WSW 3.1 km/h 3.1 km/h 91 % 0 mm 0.0 W/m2 CLR
07:45 -20.6 °C -21.2 °C 35197.5 hPa Calm     91 % 0 mm 0.0 W/m2 CLR
07:50 -20.6 °C -21.2 °C 35207.6 hPa Calm     91 % 0 mm 0.0 W/m2 CLR
07:55 -20.6 °C -21.3 °C 35207.6 hPa Calm     90 % 0 mm 0.0 W/m2 CLR
08:00 -20.9 °C -21.6 °C 35207.6 hPa Calm     91 % 0 mm 0.0 W/m2 OVC
08:01 -20.9 °C -21.6 °C 35207.6 hPa Calm     91 % 0 mm 0.0 W/m2 OVC
08:06 -20.6 °C -21.2 °C 35207.6 hPa Calm     91 % 0 mm 0.0 W/m2 OVC
08:11 -20.6 °C -21.2 °C 35207.6 hPa Calm     91 % 0 mm 5.0 W/m2 OVC
08:16 -20.6 °C -21.3 °C 35207.6 hPa Calm     90 % 0 mm 7.0 W/m2 BKN
08:21 -20.2 °C -20.9 °C 35207.6 hPa Calm     91 % 0 mm 11.0 W/m2 BKN
08:26 -20.2 °C -20.9 °C 35207.6 hPa Calm     91 % 0 mm 12.0 W/m2 BKN
08:31 -20.2 °C -20.9 °C 35221.2 hPa Calm     91 % 0 mm 14.0 W/m2 BKN
08:36 -20.6 °C -21.2 °C 35221.2 hPa Calm     91 % 0 mm 18.0 W/m2 BKN
08:41 -20.6 °C -21.2 °C 35221.2 hPa Calm     92 % 0 mm 30.0 W/m2 BKN
08:46 -20.6 °C -21.2 °C 35221.2 hPa Calm     91 % 0 mm 40.0 W/m2 BKN
08:51 -20.6 °C -21.2 °C 35221.2 hPa Calm     91 % 0 mm 46.0 W/m2 SCT
08:56 -20.2 °C -20.9 °C 35221.2 hPa Calm     91 % 0 mm 65.0 W/m2 SCT
09:01 -20.2 °C -20.9 °C 35221.2 hPa Calm     91 % 0 mm 77.0 W/m2 FEW
09:06 -20.2 °C -20.9 °C 35221.2 hPa Calm     91 % 0 mm 62.0 W/m2 SCT
09:11 -20.2 °C -20.9 °C 35231.3 hPa Calm     91 % 0 mm 83.0 W/m2 FEW
09:16 -19.9 °C -20.7 °C 35231.3 hPa Calm     91 % 0 mm 93.0 W/m2 FEW
09:21 -19.9 °C -20.7 °C 35231.3 hPa Calm     90 % 0 mm 83.0 W/m2 CLR
09:22 -19.9 °C -20.7 °C 35231.3 hPa Calm     90 % 0 mm 95.0 W/m2 CLR
09:27 -19.6 °C -20.4 °C 35231.3 hPa Calm     90 % 0 mm 123.0 W/m2 CLR
09:32 -19.6 °C -20.4 °C 35231.3 hPa Calm     90 % 0 mm 132.0 W/m2 CLR
09:37 -19.6 °C -20.5 °C 35231.3 hPa Calm     89 % 0 mm 142.0 W/m2 CLR
09:42 -19.3 °C -20.2 °C 35231.3 hPa Calm     89 % 0 mm 167.0 W/m2 CLR
09:47 -19.3 °C -20.2 °C 35244.9 hPa Calm     89 % 0 mm 178.0 W/m2 CLR
09:52 -19 °C -19.9 °C 35244.9 hPa Calm     88 % 0 mm 109.0 W/m2 CLR
09:57 -18.7 °C -19.7 °C 35244.9 hPa Calm     88 % 0 mm 204.0 W/m2 CLR
10:02 -18.7 °C -19.8 °C 35244.9 hPa Calm     87 % 0 mm 105.0 W/m2 CLR
10:07 -18.7 °C -19.9 °C 35244.9 hPa Calm     85 % 0 mm 234.0 W/m2 CLR
10:12 -18.4 °C -19.7 °C 35244.9 hPa Calm     84 % 0 mm 248.0 W/m2 CLR
10:17 -18.1 °C -19.5 °C 35244.9 hPa Calm     83 % 0 mm 262.0 W/m2 CLR
10:22 -18.1 °C -19.6 °C 35244.9 hPa Calm     82 % 0 mm 278.0 W/m2 CLR
10:27 -17.8 °C -19.3 °C 35244.9 hPa Calm     82 % 0 mm 287.0 W/m2 CLR
10:32 -17.4 °C -19 °C 35244.9 hPa Calm     82 % 0 mm 297.0 W/m2 CLR
10:37 -17.2 °C -18.8 °C 35244.9 hPa Calm     80 % 0 mm 308.0 W/m2 CLR
10:42 -17.2 °C -19.1 °C 35244.9 hPa Calm     78 % 0 mm 316.0 W/m2 CLR
10:47 -16.8 °C -18.8 °C 35244.9 hPa Calm     77 % 0 mm 325.0 W/m2 CLR
10:52 -16.6 °C -18.7 °C 35255 hPa Calm     76 % 0 mm 334.0 W/m2 CLR
10:57 -16.2 °C -18.4 °C 35255 hPa Calm     75 % 0 mm 341.0 W/m2 CLR
11:02 -15.6 °C -17.9 °C 35255 hPa Calm     74 % 0 mm 348.0 W/m2 CLR
11:07 -15.6 °C -18.1 °C 35255 hPa Calm     73 % 0 mm 357.0 W/m2 CLR
11:12 -15.3 °C -17.9 °C 35255 hPa Calm     72 % 0 mm 364.0 W/m2 CLR
11:17 -15.3 °C -17.9 °C 35255 hPa Calm     71 % 0 mm 371.0 W/m2 CLR
11:22 -14.7 °C -17.6 °C 35255 hPa NW 5.1 km/h 5.1 km/h 69 % 0 mm 380.0 W/m2 CLR
11:27 -14.7 °C -17.9 °C 35244.9 hPa NNW 9 km/h 9 km/h 66 % 0 mm 385.0 W/m2 CLR
11:32 -14.4 °C -17.6 °C 35244.9 hPa NNW 11.9 km/h 11.9 km/h 67 % 0 mm 394.0 W/m2 CLR
11:37 -14.1 °C -17.3 °C 35244.9 hPa Calm     66 % 0 mm 397.0 W/m2 CLR
11:42 -13.8 °C -17.1 °C 35244.9 hPa North 9 km/h 9 km/h 66 % 0 mm 403.0 W/m2 CLR
11:47 -13.8 °C -17.2 °C 35244.9 hPa Calm     65 % 0 mm 408.0 W/m2 CLR
11:52 -13.4 °C -17 °C 35244.9 hPa NNW 9 km/h 9 km/h 64 % 0 mm 413.0 W/m2 CLR
11:57 -13.4 °C -16.9 °C 35244.9 hPa NW 9 km/h 9 km/h 65 % 0 mm 417.0 W/m2 CLR
12:02 -13.4 °C -17 °C 35244.9 hPa North 3.1 km/h   64 % 0 mm 422.0 W/m2 CLR
12:07 -13.4 °C -17.1 °C 35244.9 hPa NNW 9 km/h 9 km/h 63 % 0 mm 425.0 W/m2 CLR
12:12 -13.4 °C -17.1 °C 35231.3 hPa NNW 9 km/h 9 km/h 63 % 0 mm 429.0 W/m2 CLR
12:18 -13.2 °C -16.8 °C 35231.3 hPa NNW 7.7 km/h 7.7 km/h 63 % 0 mm 431.0 W/m2 CLR
12:23 -13.2 °C -16.8 °C 35231.3 hPa NW 9 km/h 9 km/h 63 % 0 mm 434.0 W/m2 CLR
12:28 -13.2 °C -16.8 °C 35231.3 hPa NW 9 km/h 9 km/h 63 % 0 mm 436.0 W/m2 CLR
12:33 -13.2 °C -17 °C 35231.3 hPa North 9 km/h 9 km/h 62 % 0 mm 436.0 W/m2 CLR
12:38 -13.2 °C -17 °C 35221.2 hPa NW 9 km/h 9 km/h 62 % 0 mm 439.0 W/m2 CLR
12:43 -12.8 °C -16.7 °C 35221.2 hPa NW 9 km/h   62 % 0 mm 439.0 W/m2 CLR
12:48 -12.8 °C -16.7 °C 35221.2 hPa Calm     62 % 0 mm 439.0 W/m2 CLR
12:53 -12.8 °C -16.8 °C 35207.6 hPa Calm     61 % 0 mm 439.0 W/m2 CLR
12:58 -12.8 °C -16.9 °C 35207.6 hPa Calm     60 % 0 mm 439.0 W/m2 CLR
13:03 -12.8 °C -16.8 °C 35207.6 hPa NW 9 km/h 9 km/h 61 % 0 mm 438.0 W/m2 CLR
13:04 -13.2 °C -17.2 °C 35207.6 hPa NW 6 km/h 6 km/h 60 % 0 mm 438.0 W/m2 CLR
13:09 -12.8 °C -16.9 °C 35197.5 hPa Calm     60 % 0 mm 438.0 W/m2 CLR
13:14 -12.8 °C -16.9 °C 35197.5 hPa NNE 3.1 km/h   60 % 0 mm 438.0 W/m2 CLR
13:19 -12.6 °C -16.6 °C 35197.5 hPa Calm     60 % 0 mm 434.0 W/m2 CLR
13:24 -12.8 °C -17.1 °C 35197.5 hPa North 3.1 km/h   59 % 0 mm 432.0 W/m2 CLR
13:29 -12.6 °C -16.8 °C 35197.5 hPa Calm     59 % 0 mm 431.0 W/m2 CLR
13:34 -12.6 °C -16.9 °C 35197.5 hPa Calm     58 % 0 mm 427.0 W/m2 CLR
13:39 -12.8 °C -17.2 °C 35187.3 hPa Calm   0.3 km/h 58 % 0 mm 424.0 W/m2 CLR
13:44 -12.8 °C -17.3 °C 35187.3 hPa Calm     57 % 0 mm 422.0 W/m2 CLR
13:49 -12.6 °C -17.1 °C 35187.3 hPa Calm     57 % 0 mm 415.0 W/m2 CLR
13:54 -12.6 °C -17.2 °C 35187.3 hPa Calm     56 % 0 mm 411.0 W/m2 CLR
13:59 -12.6 °C -17.1 °C 35187.3 hPa Calm     57 % 0 mm 406.0 W/m2 CLR
14:04 -12.6 °C -17.1 °C 35187.3 hPa Calm     57 % 0 mm 401.0 W/m2 CLR
14:09 -12.2 °C -16.7 °C 35173.8 hPa ENE 3.1 km/h 3.1 km/h 57 % 0 mm 396.0 W/m2 CLR
14:14 -12.2 °C -16.7 °C 35173.8 hPa Calm     57 % 0 mm 388.0 W/m2 CLR
14:19 -12.2 °C -16.7 °C 35173.8 hPa Calm     57 % 0 mm 383.0 W/m2 CLR
14:24 -12.2 °C -16.7 °C 35173.8 hPa Calm     57 % 0 mm 376.0 W/m2 CLR
14:29 -12.2 °C -16.7 °C 35173.8 hPa East 9 km/h 9 km/h 57 % 0 mm 366.0 W/m2 CLR
14:34 -12.2 °C -16.9 °C 35173.8 hPa Calm     56 % 0 mm 362.0 W/m2 CLR
14:39 -11.9 °C -16.4 °C 35173.8 hPa SE 9 km/h 9 km/h 57 % 0 mm 353.0 W/m2 CLR
14:44 -12.2 °C -16.7 °C 35173.8 hPa SE 6 km/h 6 km/h 57 % 0 mm 346.0 W/m2 CLR
14:49 -12.2 °C -16.9 °C 35163.6 hPa ENE 3.1 km/h   56 % 0 mm 334.0 W/m2 CLR
14:54 -11.9 °C -16.4 °C 35163.6 hPa Calm     57 % 0 mm 329.0 W/m2 CLR
14:59 -11.9 °C -16.6 °C 35163.6 hPa Calm     56 % 0 mm 320.0 W/m2 CLR
15:04 -11.9 °C -16.6 °C 35163.6 hPa Calm     56 % 0 mm 311.0 W/m2 CLR
15:09 -12.2 °C -16.9 °C 35163.6 hPa ENE 2.6 km/h 2.9 km/h 56 % 0 mm 302.0 W/m2 CLR
15:14 -12.2 °C -16.9 °C 35163.6 hPa ESE 6 km/h 6 km/h 56 % 0 mm 292.0 W/m2 CLR
15:19 -12.2 °C -16.9 °C 35163.6 hPa East 3.1 km/h   56 % 0 mm 279.0 W/m2 CLR
15:24 -12.2 °C -16.9 °C 35163.6 hPa East 3.1 km/h 3.1 km/h 56 % 0 mm 265.0 W/m2 CLR
15:29 -12.2 °C -16.9 °C 35163.6 hPa East 9 km/h 9 km/h 56 % 0 mm 251.0 W/m2 CLR
15:34 -12.2 °C -16.9 °C 35163.6 hPa ESE 6 km/h 6 km/h 56 % 0 mm 241.0 W/m2 CLR
15:39 -12.2 °C -16.9 °C 35163.6 hPa ENE 9 km/h 9 km/h 56 % 0 mm 229.0 W/m2 CLR
15:45 -12.2 °C -16.7 °C 35163.6 hPa East 3.1 km/h 3.1 km/h 57 % 0 mm 218.0 W/m2 CLR
15:50 -12.2 °C -16.7 °C 35163.6 hPa East 6 km/h   57 % 0 mm 204.0 W/m2 CLR
15:55 -12.6 °C -17.2 °C 35163.6 hPa Calm     56 % 0 mm 192.0 W/m2 CLR
16:00 -12.6 °C -17.2 °C 35163.6 hPa ENE 9 km/h 9 km/h 56 % 0 mm 178.0 W/m2 CLR
16:05 -12.6 °C -17.2 °C 35163.6 hPa Calm     56 % 0 mm 162.0 W/m2 CLR
16:15 -12.8 °C -17.4 °C 35163.6 hPa NE 3.1 km/h 3.1 km/h 56 % 0 mm 135.0 W/m2 CLR
16:20 -12.8 °C -17.4 °C 35163.6 hPa Calm     56 % 0 mm 123.0 W/m2 CLR
16:25 -12.8 °C -17.3 °C 35163.6 hPa ENE 6 km/h   57 % 0 mm 107.0 W/m2 CLR
16:30 -12.8 °C -17.3 °C 35163.6 hPa Calm     57 % 0 mm 95.0 W/m2 CLR
16:35 -13.2 °C -17.6 °C 35163.6 hPa Calm     57 % 0 mm 83.0 W/m2 CLR
16:40 -13.2 °C -17.6 °C 35163.6 hPa Calm     57 % 0 mm 63.0 W/m2 FEW
16:45 -13.4 °C -17.9 °C 35163.6 hPa Calm     57 % 0 mm 54.0 W/m2 SCT
16:50 -13.4 °C -17.9 °C 35163.6 hPa Calm     57 % 0 mm 47.0 W/m2 SCT
16:55 -13.8 °C -18.1 °C 35163.6 hPa Calm     58 % 0 mm 37.0 W/m2 BKN
16:56 -13.8 °C -18.1 °C 35163.6 hPa Calm     58 % 0 mm 35.0 W/m2 BKN
17:01 -14.1 °C -18.3 °C 35163.6 hPa Calm     58 % 0 mm 25.0 W/m2 BKN
17:06 -14.4 °C -18.5 °C 35163.6 hPa Calm     59 % 0 mm 16.0 W/m2 BKN
17:11 -14.7 °C -18.8 °C 35163.6 hPa Calm     59 % 0 mm 14.0 W/m2 BKN
17:16 -15 °C -18.9 °C 35163.6 hPa Calm     60 % 0 mm 12.0 W/m2 BKN
17:21 -15 °C -18.8 °C 35163.6 hPa Calm     61 % 0 mm 11.0 W/m2 BKN
17:26 -15.3 °C -19.1 °C 35163.6 hPa Calm     61 % 0 mm 7.0 W/m2 BKN
17:31 -15.6 °C -19.3 °C 35163.6 hPa Calm     62 % 0 mm 5.0 W/m2 OVC
17:36 -15.6 °C -19.3 °C 35163.6 hPa Calm     62 % 0 mm 0.0 W/m2 OVC
17:41 -15.9 °C -19.6 °C 35163.6 hPa Calm     62 % 0 mm 0.0 W/m2 CLR
17:46 -16.2 °C -19.8 °C 35163.6 hPa Calm     63 % 0 mm 0.0 W/m2 CLR
17:51 -16.2 °C -19.7 °C 35163.6 hPa Calm     64 % 0 mm 0.0 W/m2 CLR
17:52 -16.2 °C -19.7 °C 35163.6 hPa Calm     64 % 0 mm 0.0 W/m2 CLR
17:57 -16.2 °C -19.6 °C 35163.6 hPa Calm     65 % 0 mm 0.0 W/m2 CLR
18:02 -16.2 °C -19.6 °C 35163.6 hPa Calm     65 % 0 mm 0.0 W/m2 CLR
18:07 -15.9 °C -19.1 °C 35163.6 hPa Calm     66 % 0 mm 0.0 W/m2 CLR
18:12 -16.2 °C -19.3 °C 35163.6 hPa Calm     67 % 0 mm 0.0 W/m2 CLR
18:17 -15.9 °C -19 °C 35163.6 hPa Calm     67 % 0 mm 0.0 W/m2 CLR
18:22 -15.9 °C -18.9 °C 35163.6 hPa Calm     68 % 0 mm 0.0 W/m2 CLR
18:28 -15.9 °C -19 °C 35173.8 hPa Calm     67 % 0 mm 0.0 W/m2 CLR
18:33 -16.2 °C -19.1 °C 35163.6 hPa Calm     69 % 0 mm 0.0 W/m2 CLR
18:37 -16.6 °C -19.4 °C 35173.8 hPa Calm     69 % 0 mm 0.0 W/m2 CLR
18:43 -16.6 °C -19.3 °C 35173.8 hPa Calm     70 % 0 mm 0.0 W/m2 CLR
18:48 -16.8 °C -19.3 °C 35173.8 hPa Calm     72 % 0 mm 0.0 W/m2 CLR
18:53 -16.8 °C -19.5 °C 35173.8 hPa Calm     71 % 0 mm 0.0 W/m2 CLR
18:58 -17.2 °C -19.6 °C 35173.8 hPa Calm     73 % 0 mm 0.0 W/m2 CLR
19:03 -17.2 °C -19.4 °C 35173.8 hPa Calm     74 % 0 mm 0.0 W/m2 CLR
19:08 -17.4 °C -19.8 °C 35173.8 hPa Calm     74 % 0 mm 0.0 W/m2 CLR
19:13 -17.4 °C -19.8 °C 35173.8 hPa Calm     74 % 0 mm 0.0 W/m2 CLR
19:18 -17.8 °C -19.9 °C 35173.8 hPa Calm     75 % 0 mm 0.0 W/m2 CLR
19:23 -18.1 °C -20.2 °C 35173.8 hPa Calm     75 % 0 mm 0.0 W/m2 CLR
19:28 -18.1 °C -20.2 °C 35173.8 hPa Calm     76 % 0 mm 0.0 W/m2 CLR
19:33 -18.4 °C -20.4 °C 35173.8 hPa Calm     76 % 0 mm 0.0 W/m2 CLR
19:38 -18.4 °C -20.3 °C 35173.8 hPa Calm     77 % 0 mm 0.0 W/m2 CLR
19:43 -18.4 °C -20.3 °C 35187.3 hPa Calm     77 % 0 mm 0.0 W/m2 CLR
19:48 -18.1 °C -20.1 °C 35187.3 hPa Calm     77 % 0 mm 0.0 W/m2 CLR
19:53 -18.4 °C -20.3 °C 35187.3 hPa Calm     77 % 0 mm 0.0 W/m2 CLR
19:58 -18.4 °C -20.2 °C 35187.3 hPa Calm     78 % 0 mm 0.0 W/m2 CLR
20:03 -18.1 °C -19.9 °C 35187.3 hPa Calm     78 % 0 mm 0.0 W/m2 CLR
20:08 -18.1 °C -19.9 °C 35187.3 hPa Calm     79 % 0 mm 0.0 W/m2 CLR
20:13 -18.4 °C -20.2 °C 35187.3 hPa Calm     79 % 0 mm 0.0 W/m2 CLR
20:18 -18.4 °C -20.2 °C 35187.3 hPa Calm     79 % 0 mm 0.0 W/m2 CLR
20:23 -18.4 °C -20.1 °C 35187.3 hPa Calm     80 % 0 mm 0.0 W/m2 CLR
20:28 -18.7 °C -20.4 °C 35187.3 hPa Calm     80 % 0 mm 0.0 W/m2 CLR
20:33 -18.7 °C -20.4 °C 35197.5 hPa Calm     80 % 0 mm 0.0 W/m2 CLR
20:38 -18.7 °C -20.4 °C 35197.5 hPa Calm     80 % 0 mm 0.0 W/m2 CLR
20:43 -18.7 °C -20.4 °C 35197.5 hPa Calm     80 % 0 mm 0.0 W/m2 CLR
20:48 -18.7 °C -20.3 °C 35197.5 hPa Calm     81 % 0 mm 0.0 W/m2 CLR
20:53 -18.7 °C -20.3 °C 35197.5 hPa Calm     81 % 0 mm 0.0 W/m2 CLR
20:58 -18.7 °C -20.3 °C 35197.5 hPa Calm     81 % 0 mm 0.0 W/m2 CLR
21:03 -19 °C -20.5 °C 35197.5 hPa Calm     82 % 0 mm 0.0 W/m2 CLR
21:08 -19 °C -20.5 °C 35187.3 hPa Calm     82 % 0 mm 0.0 W/m2 CLR
21:13 -19 °C -20.5 °C 35197.5 hPa Calm     82 % 0 mm 0.0 W/m2 CLR
21:18 -19.3 °C -20.8 °C 35197.5 hPa Calm     82 % 0 mm 0.0 W/m2 CLR
21:23 -19.3 °C -20.8 °C 35197.5 hPa Calm     82 % 0 mm 0.0 W/m2 CLR
21:28 -19.3 °C -20.7 °C 35197.5 hPa Calm     83 % 0 mm 0.0 W/m2 CLR
21:33 -19.3 °C -20.7 °C 35197.5 hPa Calm     83 % 0 mm 0.0 W/m2 CLR
21:38 -19.3 °C -20.7 °C 35197.5 hPa Calm     83 % 0 mm 0.0 W/m2 CLR
21:43 -19.6 °C -21 °C 35197.5 hPa Calm     83 % 0 mm 0.0 W/m2 CLR
21:48 -19.6 °C -21 °C 35197.5 hPa Calm     83 % 0 mm 0.0 W/m2 CLR
21:53 -19.6 °C -21 °C 35197.5 hPa Calm     83 % 0 mm 0.0 W/m2 CLR
21:59 -19.6 °C -20.9 °C 35197.5 hPa Calm     84 % 0 mm 0.0 W/m2 CLR
22:04 -19.6 °C -20.9 °C 35197.5 hPa Calm     84 % 0 mm 0.0 W/m2 CLR
22:09 -19.6 °C -20.9 °C 35197.5 hPa Calm     84 % 0 mm 0.0 W/m2 CLR
22:14 -19.6 °C -20.9 °C 35197.5 hPa Calm     84 % 0 mm 0.0 W/m2 CLR
22:19 -19.6 °C -20.8 °C 35197.5 hPa Calm     85 % 0 mm 0.0 W/m2 CLR
22:24 -19.6 °C -20.8 °C 35197.5 hPa Calm     85 % 0 mm 0.0 W/m2 CLR
22:29 -19.6 °C -20.9 °C 35197.5 hPa Calm     84 % 0 mm 0.0 W/m2 CLR
22:34 -19.6 °C -20.8 °C 35197.5 hPa Calm     85 % 0 mm 0.0 W/m2 CLR
22:39 -19.9 °C -21.2 °C 35197.5 hPa Calm     85 % 0 mm 0.0 W/m2 CLR
22:44 -19.9 °C -21.2 °C 35197.5 hPa Calm     85 % 0 mm 0.0 W/m2 CLR
22:49 -19.6 °C -20.8 °C 35197.5 hPa Calm     85 % 0 mm 0.0 W/m2 CLR
22:54 -19.6 °C -20.8 °C 35197.5 hPa Calm     85 % 0 mm 0.0 W/m2 CLR
23:04 -19.6 °C -20.7 °C 35197.5 hPa Calm     86 % 0 mm 0.0 W/m2 CLR
23:09 -19.6 °C -20.7 °C 35197.5 hPa Calm     86 % 0 mm 0.0 W/m2 CLR
23:14 -19.6 °C -20.7 °C 35197.5 hPa Calm     87 % 0 mm 0.0 W/m2 CLR
23:19 -19.6 °C -20.7 °C 35197.5 hPa Calm     86 % 0 mm 0.0 W/m2 CLR
23:24 -19.6 °C -20.7 °C 35207.6 hPa Calm     86 % 0 mm 0.0 W/m2 CLR
23:29 -19.6 °C -20.7 °C 35207.6 hPa Calm     86 % 0 mm 0.0 W/m2 CLR
23:34 -19.6 °C -20.7 °C 35207.6 hPa Calm     86 % 0 mm 0.0 W/m2 CLR
23:39 -19.6 °C -20.7 °C 35207.6 hPa Calm     86 % 0 mm 0.0 W/m2 CLR
23:44 -19.6 °C -20.7 °C 35197.5 hPa Calm     87 % 0 mm 0.0 W/m2 CLR
23:49 -19.6 °C -20.7 °C 35207.6 hPa Calm     87 % 0 mm 0.0 W/m2 CLR
23:54 -19.6 °C -20.7 °C 35207.6 hPa Calm     87 % 0 mm 0.0 W/m2 CLR
23:59 -19.6 °C -20.7 °C 35197.5 hPa Calm     87 % 0 mm 0.0 W/m2 CLR
Lo Temps de Massalio
Compliments of Weather Underground - 1.25 mb